Date,TemperatureHighF,TemperatureAvgF,TemperatureLowF,DewpointHighF,DewpointAvgF,DewpointLowF,HumidityHigh,HumidityAvg,HumidityLow,PressureMaxIn,PressureMinIn,WindSpeedMaxMPH,WindSpeedAvgMPH,GustSpeedMaxMPH,PrecipitationSumIn
2013-1-1,27,19,12,20,12,6,94,76,46,30.27,30.13,0,0,0,0.00
2013-1-2,36,25,15,24,18,10,90,76,61,30.22,30.07,9,3,14,0.01
2013-1-3,39,29,21,28,23,18,95,79,53,30.37,30.21,6,2,9,0.05
2013-1-4,44,31,19,27,23,17,97,75,50,30.36,30.20,9,3,14,0.01
2013-1-5,45,37,31,33,29,24,79,71,60,30.20,30.03,12,5,14,0.00
2013-1-6,43,30,22,24,20,18,85,68,36,30.35,30.14,10,3,11,0.00
2013-1-7,51,39,30,29,24,21,68,55,33,30.24,30.01,10,4,17,0.00
2013-1-8,57,44,35,36,31,28,78,61,35,30.16,29.93,9,4,16,0.00
2013-1-9,57,43,29,35,31,27,92,66,36,30.37,30.17,6,1,8,0.00
2013-1-10,50,44,38,50,40,26,99,87,45,30.30,29.70,13,7,18,0.19
2013-1-11,60,55,50,50,48,41,99,79,52,29.72,29.55,14,6,17,0.01
2013-1-12,58,30,22,38,17,11,82,59,27,30.07,29.71,10,6,16,0.00
2013-1-13,30,19,13,11,8,5,76,63,38,30.31,30.02,8,4,13,0.00
2013-1-14,35,20,10,13,8,2,87,61,24,30.46,30.31,6,1,9,0.00
2013-1-15,37,23,14,14,9,1,82,58,23,30.36,30.14,5,1,8,0.00
2013-1-16,48,32,21,30,20,11,80,60,41,30.15,29.99,10,3,14,0.00
2013-1-17,54,37,29,31,28,22,96,71,34,30.44,30.16,8,2,13,0.00
2013-1-18,59,45,35,31,29,27,76,55,30,30.36,30.00,16,8,24,0.00
2013-1-19,61,49,42,33,29,22,66,48,23,30.22,29.94,11,6,17,0.00
2013-1-20,42,29,20,29,12,7,68,49,35,30.36,30.22,9,5,13,0.00
2013-1-21,22,18,14,12,6,-3,83,60,32,30.40,30.32,7,3,11,0.00
2013-1-22,30,20,13,10,6,2,69,53,34,30.37,30.22,8,4,12,0.00
2013-1-23,51,31,15,22,16,8,76,55,29,30.38,30.14,10,3,15,0.00
2013-1-24,26,20,9,15,6,0,68,54,39,30.46,30.13,14,8,20,0.00
2013-1-25,51,34,21,21,15,10,69,48,26,30.21,30.10,7,2,10,0.00
2013-1-26,58,42,31,26,23,20,69,49,23,30.25,30.05,8,4,11,0.00
2013-1-27,62,51,40,56,46,24,95,83,41,30.06,29.72,12,7,17,0.09
2013-1-28,76,66,58,62,58,55,95,78,49,29.84,29.63,12,5,24,0.00
2013-1-29,68,49,35,63,47,35,99,94,77,29.66,29.42,14,6,23,1.09
2013-1-30,36,27,22,35,23,15,99,84,68,29.94,29.47,13,7,27,0.02
2013-1-31,25,18,9,20,9,0,84,67,49,30.43,29.90,12,5,22,0.00
2013-2-1,27,18,6,14,6,-1,75,61,44,30.43,30.11,7,3,11,0.00
2013-2-2,49,37,26,34,26,14,72,64,53,30.18,30.05,10,4,15,0.00
2013-2-3,51,41,32,33,23,13,75,52,25,30.25,29.83,8,4,11,0.00
2013-2-4,48,39,24,31,27,21,92,63,44,29.96,29.76,10,4,16,0.00
2013-2-5,61,39,24,32,27,22,94,66,29,30.07,29.86,8,3,13,0.00
2013-2-6,63,49,34,40,34,27,77,58,34,30.08,29.85,10,5,16,0.00
2013-2-7,51,44,32,48,40,28,99,87,64,30.16,29.83,12,4,17,0.74
2013-2-8,46,34,30,30,28,26,92,79,51,30.30,30.16,8,5,14,0.00
2013-2-9,50,37,29,38,32,27,96,82,54,30.19,29.73,11,8,17,0.05
2013-2-10,53,45,37,48,35,23,99,71,42,29.88,29.45,20,11,34,0.04
2013-2-11,50,38,30,26,24,21,75,57,32,30.14,29.88,12,5,18,0.00
2013-2-12,44,34,25,28,24,20,87,66,41,30.14,29.92,4,1,7,0.00
2013-2-13,58,42,28,27,24,18,84,53,21,29.93,29.77,11,4,17,0.00
2013-2-14,51,43,35,32,26,22,75,53,34,30.14,29.81,11,4,17,0.00
2013-2-15,40,30,22,27,15,0,96,56,20,30.33,30.14,10,5,17,0.00
2013-2-16,29,26,17,24,20,15,96,78,68,30.27,30.23,4,3,6,0.00
2013-2-17,29,29,29,20,20,20,68,68,68,30.24,30.24,4,4,6,0.00
2013-2-18,55,32,28,54,23,17,97,69,61,30.38,29.94,13,6,21,0.01
2013-2-19,37,28,22,18,8,-10,77,47,13,30.64,30.38,11,5,20,0.00
2013-2-20,24,20,15,14,8,1,70,57,42,30.68,30.48,12,7,17,0.00
2013-2-21,26,23,20,26,20,14,99,90,69,30.48,30.06,22,10,27,0.00
2013-2-22,32,24,18,25,20,15,99,84,57,30.38,30.08,10,5,13,0.01
2013-2-23,39,25,12,20,17,10,95,73,42,30.37,30.25,7,2,10,0.00
2013-2-24,49,34,21,27,23,18,91,66,40,30.32,30.21,12,5,16,0.00
2013-2-25,38,34,30,34,28,24,99,80,64,30.27,29.97,16,8,22,0.04
2013-2-26,33,32,30,33,32,30,99,99,94,30.15,29.88,13,1,19,0.01
2013-2-27,37,32,28,30,28,26,99,87,67,30.35,30.13,4,0,6,0.01
2013-2-28,34,31,28,28,26,24,87,83,74,30.50,30.34,7,3,13,0.00
2013-3-1,34,28,25,25,23,20,85,80,65,30.60,30.47,9,4,15,0.00
2013-3-2,40,29,22,22,19,16,86,67,39,30.65,30.48,6,3,11,0.04
2013-3-3,46,36,25,28,24,19,80,63,43,30.48,30.06,10,5,14,0.00
2013-3-4,55,42,35,34,30,28,94,64,41,30.25,29.98,10,6,14,0.00
2013-3-5,38,32,28,34,22,17,98,66,50,30.64,30.25,13,8,21,0.04
2013-3-6,46,32,23,22,20,17,79,62,34,30.72,30.58,9,4,16,0.00
2013-3-7,50,36,24,30,25,20,83,64,37,30.59,30.43,11,7,14,0.00
2013-3-8,57,47,37,39,34,28,72,62,47,30.52,30.28,14,7,17,0.00
2013-3-9,60,52,46,56,47,39,99,84,61,30.29,29.91,9,4,16,0.39
2013-3-10,55,53,51,55,52,51,99,99,99,29.93,29.90,4,2,7,0.00
2013-3-18,56,46,35,24,18,14,48,34,21,30.36,30.19,12,6,21,0.01
2013-3-19,39,34,28,37,25,10,99,72,31,30.55,30.35,6,2,9,0.01
2013-3-20,42,32,24,35,13,-2,99,51,15,30.68,30.43,12,6,20,0.00
2013-3-21,29,27,24,27,18,9,93,71,48,30.42,30.21,12,6,17,0.00
2013-3-22,33,31,29,31,29,27,99,92,86,30.31,30.24,10,6,13,0.00
2013-3-23,39,34,32,33,30,26,99,87,62,30.34,30.16,15,5,17,0.00
2013-3-24,32,29,23,32,27,19,99,94,83,30.37,30.12,0,0,0,0.00
2013-3-25,37,28,21,28,24,18,96,84,64,30.62,30.35,9,2,15,0.00
2013-3-26,42,31,20,24,21,19,96,71,39,30.69,30.58,8,2,11,0.11
2013-3-27,51,38,24,32,26,19,85,64,40,30.60,30.49,13,6,16,0.01
2013-3-28,68,52,36,42,35,32,83,57,30,30.53,30.42,8,4,11,0.00
2013-3-29,69,56,42,42,38,31,88,57,25,30.50,30.39,10,5,15,0.00
2013-3-30,69,57,50,58,51,43,98,80,54,30.38,30.16,13,4,14,0.02
2013-3-31,68,56,45,51,39,22,99,58,22,30.28,30.22,10,3,16,0.00
2013-4-1,51,42,34,34,19,1,81,44,14,30.58,30.28,16,6,18,0.00
2013-4-2,53,40,29,22,18,12,65,43,20,30.63,30.53,9,5,13,0.00
2013-4-3,51,42,33,25,21,14,68,44,27,30.66,30.53,12,6,15,0.00
2013-4-4,68,51,37,29,21,7,62,36,10,30.53,30.35,7,2,11,0.00
2013-4-5,74,57,40,40,35,29,73,46,25,30.47,30.16,9,4,16,0.00
2013-4-6,78,65,57,48,42,34,59,46,20,30.17,29.96,16,8,24,0.00
2013-4-7,75,62,50,58,47,41,99,61,31,30.17,29.96,11,3,18,0.54
2013-4-8,76,65,54,63,60,53,99,84,63,30.04,29.98,9,4,23,0.40
2013-4-9,74,68,58,66,61,56,99,79,70,30.08,29.95,12,6,27,0.20
2013-4-10,56,43,38,55,43,38,99,99,95,30.23,30.02,13,5,30,0.81
2013-4-11,41,37,34,38,30,27,99,78,58,30.11,30.01,12,7,18,0.01
2013-4-12,54,41,32,33,30,26,87,65,39,30.32,30.06,10,6,15,0.00
2013-4-13,66,51,33,45,37,30,94,63,39,30.36,30.03,12,4,17,0.00
2013-4-14,76,64,54,57,47,30,80,56,33,30.02,29.80,16,7,28,0.04
2013-4-15,57,50,44,44,36,30,93,61,37,30.29,30.02,10,4,16,0.08
2013-4-16,47,44,42,38,34,29,80,67,52,30.44,30.30,14,10,21,0.00
2013-4-17,52,48,45,51,47,38,99,95,74,30.37,29.94,13,6,17,0.44
2013-4-18,48,40,37,47,37,28,99,88,68,30.23,29.88,16,8,18,0.21
2013-4-19,54,42,32,28,23,13,79,51,21,30.40,30.19,14,7,23,0.00
2013-4-20,57,45,30,34,28,23,80,52,32,30.55,30.40,13,6,18,0.00
2013-4-21,70,59,49,43,38,31,66,47,29,30.52,30.40,13,6,18,0.00
2013-4-22,68,58,49,51,43,39,93,60,39,30.44,30.21,12,4,15,0.01
2013-4-23,48,37,34,46,35,32,99,96,77,30.48,30.30,15,7,24,0.77
2013-4-24,57,43,30,34,28,21,99,62,28,30.56,30.44,15,4,18,0.01
2013-4-25,72,56,36,40,34,26,88,49,19,30.60,30.44,8,4,14,0.00
2013-4-26,60,52,48,50,47,38,99,83,48,30.52,30.44,10,5,16,0.44
2013-4-27,56,51,47,51,49,47,99,94,81,30.49,30.30,7,4,10,0.60
2013-4-28,79,61,43,56,50,43,99,73,35,30.30,30.08,9,3,13,0.00
2013-4-29,88,73,59,64,58,52,84,63,39,30.12,29.93,11,6,17,0.00
2013-4-30,87,76,68,58,52,46,70,46,27,30.13,29.96,12,6,20,0.00
2013-5-1,86,68,43,60,52,40,90,58,36,30.47,30.13,12,5,20,0.02
2013-5-2,43,37,33,41,37,32,99,97,90,30.67,30.47,16,7,25,0.56
2013-5-3,40,37,33,36,34,33,99,91,78,30.60,30.20,11,6,20,0.47
2013-5-4,50,42,33,45,39,33,99,90,72,30.32,30.13,9,4,14,0.17
2013-5-5,60,51,45,51,48,45,99,92,72,30.41,30.30,9,4,14,0.01
2013-5-6,72,58,51,56,52,50,98,83,54,30.40,30.31,6,3,10,0.00
2013-5-7,82,64,48,59,50,41,99,66,24,30.38,30.26,5,1,8,0.00
2013-5-8,79,66,58,61,56,51,95,72,47,30.31,30.19,9,3,13,0.07
2013-5-9,79,66,59,63,59,55,99,82,45,30.24,30.14,8,2,14,0.11
2013-5-10,70,59,51,58,52,46,99,81,42,30.34,30.20,7,3,12,0.01
2013-5-11,70,58,46,51,33,14,98,50,12,30.54,30.34,19,5,23,0.00
2013-5-12,72,55,36,41,27,12,84,42,10,30.57,30.42,6,2,8,0.00
2013-5-13,83,65,48,57,47,41,83,55,29,30.46,30.24,7,3,12,0.00
2013-5-14,96,80,67,57,47,29,70,37,10,30.24,30.08,11,5,21,0.00
2013-5-15,92,77,68,68,60,53,84,56,33,30.19,30.10,6,4,14,0.00
2013-5-16,84,72,60,65,62,59,99,74,44,30.19,30.08,6,2,11,0.00
2013-5-17,80,69,60,64,62,60,99,79,54,30.24,30.15,5,2,7,0.00
2013-5-18,88,75,63,73,67,61,96,77,52,30.23,30.02,8,4,13,0.00
2013-5-19,85,71,62,73,65,60,99,82,59,30.14,29.87,14,4,22,0.77
2013-5-20,84,70,62,69,64,60,97,83,53,30.05,29.90,8,3,11,0.01
2013-5-21,80,68,57,64,53,48,88,60,35,30.08,29.97,8,3,13,0.00
2013-5-22,70,63,55,53,51,49,85,67,53,30.25,30.03,8,3,11,0.00
2013-5-23,71,61,52,56,52,49,91,73,55,30.51,30.25,8,3,14,0.00
2013-5-24,75,63,50,56,50,46,99,66,37,30.60,30.42,11,4,16,0.00
2013-5-25,87,73,62,66,59,47,82,62,46,30.46,30.29,6,3,12,0.00
2013-5-26,88,77,68,70,68,65,93,73,53,30.35,30.17,7,3,15,0.00
2013-5-27,83,72,62,72,66,62,99,82,64,30.24,29.96,13,5,17,2.04
2013-5-28,80,75,72,75,70,67,95,82,73,30.11,29.94,6,3,13,0.05
2013-5-29,83,75,66,69,66,62,93,74,59,30.12,29.93,9,5,17,0.07
2013-5-30,77,65,62,66,64,62,99,94,66,30.05,29.91,8,3,12,1.32
2013-5-31,83,70,59,69,65,58,99,85,57,30.05,29.96,8,2,11,1.00
2013-6-1,73,66,61,68,57,50,98,72,49,30.28,29.98,8,3,13,0.00
2013-6-2,68,60,50,53,50,47,92,72,46,30.39,30.27,7,3,13,0.00
2013-6-3,76,62,47,58,52,46,99,72,46,30.37,30.18,7,3,10,0.00
2013-6-4,78,68,63,68,62,57,97,83,65,30.27,30.16,6,3,10,0.06
2013-6-5,68,64,62,67,64,61,99,96,90,30.27,30.20,6,2,13,0.08
2013-6-6,79,68,58,63,56,50,99,70,39,30.27,30.21,9,2,12,0.00
2013-6-7,80,66,53,58,53,48,99,67,35,30.31,30.21,6,2,10,0.00
2013-6-8,83,69,56,63,57,52,87,68,42,30.26,30.05,7,2,14,0.01
2013-6-9,85,72,62,65,60,49,99,71,30,30.15,30.06,8,3,14,0.43
2013-6-10,95,75,60,63,58,44,97,62,20,30.20,30.11,4,2,8,0.00
2013-6-11,100,84,72,71,65,56,90,56,24,30.18,30.08,8,4,12,0.01
2013-6-12,98,86,77,72,69,61,80,59,38,30.22,30.05,9,5,17,0.00
2013-6-13,90,75,63,64,60,55,87,61,33,30.36,30.22,13,3,17,0.00
2013-6-14,90,78,66,75,68,63,94,74,51,30.32,30.16,7,3,11,0.00
2013-6-15,96,77,68,76,70,65,99,81,37,30.32,30.18,9,3,20,1.37
2013-6-16,85,75,66,74,71,66,99,89,66,30.26,30.18,5,2,8,0.00
2013-6-17,86,74,66,75,70,66,99,88,66,30.29,30.18,5,2,12,0.25
2013-6-18,90,74,65,72,65,57,99,78,34,30.31,30.26,7,2,11,0.00
2013-6-19,93,77,65,70,66,40,99,71,16,30.32,29.82,5,2,12,0.00
2013-6-20,92,81,71,74,71,68,91,72,52,29.89,29.77,8,4,16,0.00
2013-6-21,96,84,77,76,73,70,86,69,45,29.86,29.78,8,4,14,0.00
2013-6-22,98,85,76,73,70,65,81,64,41,29.88,29.73,7,4,19,0.00
2013-6-23,93,83,74,76,72,69,89,71,47,29.84,29.65,10,3,14,0.00
2013-6-24,93,84,76,73,70,65,80,63,44,29.84,29.68,9,4,14,0.00
2013-6-25,92,82,74,75,71,68,97,71,51,29.77,29.61,10,4,14,0.12
2013-6-26,104,86,75,75,67,47,87,59,15,29.77,29.60,6,3,12,0.00
2013-6-27,91,78,70,77,71,66,99,80,59,29.90,29.71,12,2,17,0.15
2013-6-28,91,79,68,74,64,54,99,66,29,29.84,29.75,7,3,16,0.01
2013-6-29,86,75,64,62,58,50,81,57,30,29.78,29.69,11,5,18,0.00
2013-6-30,82,72,62,61,57,54,85,62,41,29.93,29.77,11,4,14,0.00
2013-7-1,86,72,60,58,53,44,84,54,25,30.00,29.93,11,4,17,0.00
2013-7-2,87,72,57,61,53,42,95,56,22,30.02,29.93,8,2,11,0.00
2013-7-3,92,72,60,63,56,43,99,64,20,29.97,29.87,10,2,14,0.27
2013-7-4,94,75,60,63,57,46,98,60,20,29.94,29.83,5,2,9,0.01
2013-7-5,94,80,66,63,60,56,79,54,29,29.89,29.77,6,3,11,0.00
2013-7-6,94,79,70,67,64,61,75,61,34,29.88,29.77,6,3,14,0.00
2013-7-7,97,84,73,70,67,63,81,59,35,29.87,29.80,6,3,13,0.02
2013-7-8,100,86,78,71,67,65,67,56,33,29.91,29.84,4,2,9,0.00
2013-7-9,104,90,79,76,71,67,74,56,31,29.89,29.73,7,3,11,0.00
2013-7-10,96,85,74,73,66,51,75,55,23,29.93,29.77,9,3,12,0.00
2013-7-11,89,77,70,65,60,54,75,58,32,29.97,29.86,7,3,10,0.00
2013-7-12,92,79,69,67,62,59,77,59,40,29.94,29.85,7,4,10,0.00
2013-7-13,91,80,71,69,63,58,67,57,43,29.93,29.84,6,3,11,0.00
2013-7-14,89,78,66,64,61,56,86,58,34,30.00,29.89,8,3,11,0.00
2013-7-15,92,80,71,71,68,62,90,69,44,30.07,29.99,6,3,9,0.00
2013-7-16,96,83,73,73,70,65,92,66,40,30.15,30.05,5,2,8,0.00
2013-7-17,94,84,73,74,71,69,91,68,44,30.19,30.06,4,1,4,0.02
2013-7-18,86,82,72,73,71,70,95,71,60,30.09,30.05,3,2,4,0.00
2013-7-19,86,86,85,71,71,65,60,60,50,30.05,29.93,3,2,4,0.00
2013-7-20,92,80,74,75,71,67,91,75,49,29.97,29.89,7,1,11,0.01
2013-7-21,93,80,71,74,70,67,95,74,44,29.96,29.83,4,2,7,0.00
2013-7-22,99,83,70,75,70,65,99,70,37,29.89,29.81,5,2,10,0.00
2013-7-23,89,81,74,74,69,64,93,69,53,29.97,29.83,8,3,12,0.00
2013-7-24,91,77,67,63,59,52,79,56,29,30.07,29.96,7,3,11,0.00
2013-7-25,89,74,67,72,65,60,99,77,41,30.12,30.03,5,1,8,0.31
2013-7-26,89,76,69,73,66,52,99,75,37,30.09,29.99,8,2,12,0.11
2013-7-27,82,68,56,58,52,46,95,60,31,30.14,30.01,7,2,12,0.00
2013-7-28,80,68,54,58,52,44,94,62,30,30.09,30.05,4,1,6,0.00
2013-7-29,71,66,60,70,64,57,99,92,68,30.11,29.99,7,3,9,0.63
2013-7-30,83,76,71,77,73,71,99,91,73,30.06,29.97,5,2,8,0.27
2013-7-31,89,77,69,73,68,64,99,78,45,30.11,30.03,5,2,9,0.00
2013-8-1,94,79,66,72,67,64,99,72,37,30.11,29.96,4,1,8,0.00
2013-8-2,87,77,66,75,72,65,99,85,63,30.00,29.86,5,2,7,0.27
2013-8-3,85,78,73,75,72,70,96,83,63,30.12,29.91,6,3,8,0.00
2013-8-4,77,72,68,73,68,61,99,88,72,30.16,30.02,6,3,9,0.24
2013-8-5,88,77,70,76,73,70,99,87,62,30.05,29.82,3,1,5,0.00
2013-8-6,93,80,70,77,74,70,99,83,52,29.89,29.81,6,2,9,0.69
2013-8-7,89,80,72,78,74,67,99,83,63,29.96,29.80,11,2,14,0.59
2013-8-8,76,72,69,68,67,64,94,83,74,30.03,29.90,8,3,13,0.00
2013-8-9,77,72,66,71,67,65,99,86,72,30.13,30.00,3,1,4,0.01
2013-8-10,88,74,64,66,64,57,99,74,38,30.20,30.09,6,2,8,0.01
2013-8-11,90,76,64,69,65,60,91,70,46,30.15,30.01,5,1,7,0.00
2013-8-12,88,76,67,73,70,66,99,83,54,30.05,29.96,8,2,12,1.32
2013-8-13,84,73,66,69,62,52,99,73,34,30.13,30.03,6,2,8,0.00
2013-8-14,82,70,63,63,59,56,91,69,41,30.21,30.11,5,3,7,0.00
2013-8-15,75,68,63,62,58,55,78,71,55,30.14,30.02,4,2,7,0.00
2013-8-16,80,69,60,59,57,55,88,68,46,30.18,30.08,8,2,9,0.00
2013-8-17,81,67,55,62,56,53,99,72,42,30.22,30.12,6,2,11,0.00
2013-8-18,86,71,57,64,60,56,99,73,41,30.19,30.07,5,1,8,0.00
2013-8-19,90,76,65,68,64,61,96,71,40,30.13,30.01,5,1,7,0.00
2013-8-20,93,80,69,68,66,62,86,65,38,30.08,29.99,5,2,10,0.00
2013-8-21,95,81,70,71,67,64,84,66,39,30.09,30.01,4,2,8,0.00
2013-8-22,93,81,72,72,70,68,88,70,46,30.11,30.02,3,1,4,0.00
2013-8-23,95,81,71,76,70,64,99,73,38,30.11,30.02,6,2,8,0.00
2013-8-24,94,82,74,75,71,68,89,70,44,30.15,30.06,4,2,8,0.00
2013-8-25,98,83,73,75,71,68,91,69,39,30.22,30.12,6,2,7,0.00
2013-8-26,98,85,75,72,70,67,87,65,37,30.18,30.06,7,3,10,0.00
2013-8-27,98,84,76,72,67,60,80,58,32,30.08,29.99,6,3,11,0.00
2013-8-28,97,82,71,72,69,66,90,66,39,30.07,30.01,6,2,10,0.00
2013-8-29,99,85,75,75,72,67,89,66,38,30.06,29.96,6,1,7,0.00
2013-8-30,105,89,79,73,68,58,75,53,22,29.99,29.85,5,2,10,0.00
2013-8-31,94,84,75,79,73,66,94,70,41,29.89,29.81,6,1,8,0.00
2013-9-1,89,78,69,76,70,63,99,80,51,29.97,29.78,15,3,27,0.98
2013-9-2,87,72,62,64,61,56,98,70,38,30.07,29.97,5,2,10,0.00
2013-9-3,91,72,58,63,58,48,99,66,23,30.13,30.03,4,1,6,0.00
2013-9-4,90,74,60,66,61,54,95,67,30,30.18,30.08,3,1,6,0.00
2013-9-5,91,76,63,67,62,57,93,65,32,30.22,30.11,4,1,8,0.00
2013-9-6,93,79,68,67,64,62,85,64,38,30.15,29.99,5,2,8,0.00
2013-9-7,76,73,72,65,65,64,77,75,66,30.01,29.99,4,2,5,0.00
2013-9-8,105,82,72,69,65,60,77,62,23,30.01,29.86,4,2,8,0.00
2013-9-9,100,87,79,67,63,56,63,47,24,30.02,29.93,6,3,11,0.00
2013-9-10,97,84,74,67,64,61,74,53,31,30.13,30.01,7,3,12,0.00
2013-9-11,100,83,72,66,62,55,76,52,23,30.18,30.07,5,2,8,0.00
2013-9-12,88,78,72,72,64,44,95,66,36,30.20,30.11,8,3,13,0.00
2013-9-13,80,67,57,53,49,44,81,53,30,30.25,30.12,7,3,11,0.00
2013-9-14,81,68,55,53,50,48,77,55,35,30.17,30.01,6,2,8,0.00
2013-9-15,89,72,65,69,61,53,94,68,45,30.20,30.00,9,3,13,0.06
2013-9-16,64,61,59,63,60,59,99,98,94,30.31,30.19,10,5,13,0.25
2013-9-17,73,66,62,70,65,61,99,98,89,30.24,30.03,6,2,8,0.45
2013-9-18,92,78,67,74,70,67,99,79,50,30.03,29.85,7,3,12,0.00
2013-9-19,96,79,67,71,68,63,99,74,34,29.98,29.78,12,4,24,2.09
2013-9-20,72,63,53,67,54,47,99,76,44,30.12,29.96,6,3,11,0.01
2013-9-21,79,61,48,54,49,39,99,70,26,30.10,29.97,4,1,7,0.00
2013-9-22,80,65,54,53,50,47,83,62,33,30.05,29.92,5,2,8,0.00
2013-9-23,78,66,54,56,53,51,91,66,41,30.00,29.84,7,3,14,0.00
2013-9-24,70,65,60,61,58,56,99,79,65,29.91,29.82,7,2,9,0.00
2013-9-25,83,67,55,64,61,55,99,83,50,29.95,29.87,5,2,8,0.00
2013-9-26,87,73,62,65,61,58,96,70,39,29.98,29.89,6,3,11,0.00
2013-9-27,90,76,68,66,63,60,83,65,38,30.03,29.91,6,4,11,0.00
2013-9-28,73,64,53,68,60,53,99,87,69,30.14,29.86,7,3,11,0.41
2013-9-29,78,60,48,59,51,47,99,78,34,30.16,30.00,4,1,6,0.00
2013-9-30,82,64,51,62,57,50,99,78,44,30.01,29.87,6,1,8,0.00
2013-10-1,88,71,61,67,64,57,99,80,46,30.02,29.90,4,1,7,0.00
2013-10-2,87,73,65,73,68,63,99,85,52,30.07,29.92,4,1,8,0.00
2013-10-3,88,74,64,73,69,63,99,85,58,29.98,29.77,7,3,11,0.13
2013-10-4,89,77,66,73,69,64,99,79,49,29.93,29.77,10,4,19,0.51
2013-10-5,66,55,48,66,41,36,99,61,38,30.07,29.92,8,4,12,0.02
2013-10-6,64,52,43,46,41,35,84,66,44,30.05,29.89,9,4,16,0.00
2013-10-7,77,56,42,48,44,39,97,69,28,30.19,30.04,4,1,6,0.00
2013-10-8,81,63,52,52,47,42,81,59,25,30.15,30.05,6,2,12,0.00
2013-10-9,79,63,53,52,49,45,82,62,32,30.14,30.05,5,2,8,0.00
2013-10-10,81,66,52,60,53,48,89,64,38,30.11,29.91,6,2,8,0.00
2013-10-11,76,68,58,66,61,53,95,79,53,29.92,29.82,7,3,12,0.12
2013-10-12,61,57,52,60,51,45,99,80,70,30.10,29.89,6,3,11,0.00
2013-10-13,71,57,46,45,39,32,92,55,24,30.44,30.30,12,3,12,0.00
2013-10-14,68,60,53,61,49,35,96,69,44,30.32,29.92,10,5,15,0.05
2013-10-15,64,55,48,60,47,39,99,75,42,30.12,29.91,7,4,12,0.09
2013-10-16,63,51,44,45,41,39,84,70,43,30.16,30.03,5,2,9,0.01
2013-10-17,70,53,42,46,42,33,95,69,30,30.07,29.94,49,3,49,0.00
2013-10-18,49,41,37,42,38,35,99,90,71,30.19,30.07,6,2,9,0.21
2013-10-19,64,46,34,41,36,32,99,73,31,30.14,29.94,7,3,12,0.00
2013-10-20,72,57,47,44,40,34,77,55,24,29.98,29.84,5,2,12,0.02
2013-10-21,60,48,41,45,32,22,78,57,25,30.17,29.99,6,3,11,0.00
2013-10-22,62,51,40,43,36,31,74,57,39,30.15,29.96,10,4,16,0.00
2013-10-23,51,43,32,34,30,26,88,64,40,30.22,30.09,4,1,7,0.00
2013-10-24,53,42,32,34,25,11,81,56,18,30.48,30.21,8,3,14,0.00
2013-10-25,60,43,29,27,19,2,81,46,10,30.51,30.19,6,2,10,0.00
2013-10-26,64,50,36,39,29,15,70,48,16,30.23,30.12,7,3,10,0.00
2013-10-27,67,46,31,34,23,8,85,49,10,30.22,30.00,4,1,8,0.00
2013-10-28,70,53,41,47,38,25,78,57,37,30.19,30.04,4,2,8,0.00
2013-10-29,65,57,52,64,56,45,99,94,73,30.19,29.99,6,3,8,0.84
2013-10-30,69,66,62,68,65,61,99,98,79,30.02,29.77,7,3,14,1.26
2013-10-31,63,51,47,62,49,42,99,93,72,29.79,29.62,7,2,10,0.91
2013-11-1,61,50,42,42,36,28,83,61,28,30.03,29.70,10,3,16,0.00
2013-11-2,58,46,39,35,30,17,75,56,20,30.25,30.03,7,3,12,0.00
2013-11-3,61,50,39,33,29,17,70,48,18,30.22,29.96,8,4,19,0.00
2013-11-4,60,55,48,47,42,33,76,61,45,30.15,29.94,8,3,11,0.17
2013-11-5,60,57,49,59,54,46,96,90,70,30.16,29.91,8,3,16,0.58
2013-11-6,47,40,33,44,32,27,92,74,50,30.38,29.98,9,4,13,0.15
2013-11-7,57,41,32,32,23,4,84,56,12,30.44,30.36,8,2,11,0.00
2013-11-8,66,51,34,28,18,5,66,31,10,30.37,29.93,9,5,19,0.00
2013-11-9,69,53,43,30,22,5,55,34,10,30.36,30.02,7,2,11,0.00
2013-11-10,61,50,41,26,17,0,51,30,10,30.46,30.26,7,2,11,0.00
2013-11-11,63,47,27,42,29,6,74,49,29,30.67,30.21,12,5,19,0.00
2013-11-12,38,25,17,7,-1,-17,57,35,10,30.90,30.68,11,3,20,0.00
2013-11-13,52,36,22,5,-2,-14,45,23,10,30.71,30.22,7,4,13,0.00
2013-11-14,57,45,36,12,5,-4,35,20,10,30.23,30.01,9,5,14,0.00
2013-11-15,61,51,42,38,24,7,62,36,19,30.03,29.79,6,3,11,0.00
2013-11-16,70,63,51,53,48,38,70,58,44,29.81,29.49,14,7,24,0.00
2013-11-17,68,61,46,53,24,0,62,31,10,30.13,29.41,18,8,27,0.00
2013-11-18,61,46,36,26,13,-7,64,32,10,30.34,30.13,6,2,11,0.00
2013-11-19,63,50,40,12,4,-4,30,16,10,30.30,30.04,11,5,18,0.00
2013-11-20,51,46,40,30,18,-6,62,37,10,30.05,29.93,9,4,17,0.04
2013-11-21,51,42,28,38,30,18,72,63,48,30.47,30.02,12,3,16,0.14
2013-11-22,30,26,23,18,14,10,67,57,51,30.66,30.46,0,0,0,0.00
2013-11-23,29,23,15,11,-5,-24,57,31,10,30.82,30.63,0,0,0,0.00
2013-11-24,29,21,12,-4,-11,-24,46,27,10,30.79,30.38,6,1,9,0.00
2013-11-25,41,32,27,12,-3,-13,49,24,10,30.38,30.22,6,3,10,0.00
2013-11-26,39,30,21,16,3,-16,59,35,10,30.45,30.21,12,5,20,0.00
2013-11-27,36,25,16,-1,-12,-22,45,22,10,30.47,30.22,10,3,14,0.00
2013-11-28,45,33,27,4,-4,-14,35,21,10,30.53,30.19,8,4,12,0.00
2013-11-29,55,37,25,6,2,-5,41,25,10,30.53,30.30,7,4,10,0.00
2013-11-30,58,43,36,25,13,1,60,32,10,30.30,30.13,9,2,11,0.00
2013-12-1,62,43,30,29,18,2,69,43,10,30.17,29.93,5,1,7,0.00
2013-12-2,56,45,36,33,29,23,69,55,32,29.93,29.67,6,2,9,0.00
2013-12-3,64,48,42,38,32,21,74,57,20,29.67,29.59,5,2,10,0.00
2013-12-4,45,35,24,36,22,-1,71,59,33,30.09,29.56,9,4,12,0.01
2013-12-5,23,18,16,4,-9,-16,54,30,21,30.42,30.09,11,6,15,0.00
2013-12-6,18,14,10,-16,-24,-32,26,16,10,30.69,30.41,11,6,17,0.00
2013-12-7,21,13,4,-14,-23,-31,40,21,10,30.75,30.41,11,6,15,0.00
2013-12-8,24,20,17,10,-1,-29,58,41,10,30.40,30.03,12,5,16,0.00
2013-12-9,54,13,10,29,-9,-32,52,37,10,30.45,29.29,6,3,11,0.00
2013-12-10,40,25,12,0,-13,-24,34,19,10,29.93,29.81,9,4,17,0.00
2013-12-11,29,22,10,6,-12,-29,43,24,10,30.23,29.83,12,4,18,0.00
2013-12-12,47,30,12,7,-12,-24,35,17,10,30.20,29.78,10,4,17,0.00
2013-12-13,37,33,28,24,18,6,65,53,35,29.78,29.47,4,2,9,0.11
2013-12-14,35,27,21,25,11,3,68,53,39,29.83,29.50,8,1,13,0.02
2013-12-15,52,35,19,9,3,-9,53,31,10,29.83,29.58,6,2,11,0.00
2013-12-16,62,41,30,11,4,-7,41,23,10,29.77,29.57,8,2,12,0.00
2013-12-17,48,35,25,17,2,-14,55,30,10,29.90,29.77,9,2,14,0.00
2013-12-18,64,48,32,6,0,-12,26,14,10,29.84,29.41,15,6,23,0.00
2013-12-19,57,54,45,38,28,2,48,37,12,29.41,29.27,9,4,12,0.00
2013-12-20,45,26,21,25,11,5,61,53,44,29.55,29.32,8,4,14,0.00
2013-12-21,28,24,21,15,10,5,61,54,49,29.52,29.23,8,3,11,0.00
2013-12-22,25,22,16,14,6,-2,61,50,39,29.98,29.34,0,0,0,0.00
2013-12-23,17,10,3,-1,-14,-22,50,34,17,30.22,29.96,0,0,0,0.00
2013-12-24,31,18,2,14,-6,-21,51,36,15,30.19,29.80,0,0,0,0.00
2013-12-25,42,32,26,16,9,-3,56,40,15,29.95,29.84,8,1,13,0.22
2013-12-26,50,35,24,12,5,-8,55,33,10,29.94,29.79,11,3,18,0.04
2013-12-27,57,40,27,15,7,-8,52,30,10,29.94,29.79,6,3,9,0.00
2013-12-28,59,46,35,12,2,-9,34,18,10,29.79,29.51,10,4,17,0.00
2013-12-29,40,22,15,10,-7,-28,36,28,10,29.90,29.56,12,8,21,0.00
2014-1-1,34,21,8,3,-5,-11,43,32,14,29.91,29.63,11,6,17,0.00
2014-1-2,20,8,1,-11,-22,-33,41,25,10,30.08,29.90,8,3,12,0.00